sensor_id;sensor_type;location;lat;lon;timestamp;P1;durP1;ratioP1;P2;durP2;ratioP2
8102;SDS011;4094;49.948;11.574;2023-02-12T00:00:06;41.13;;;35.97;;
8102;SDS011;4094;49.948;11.574;2023-02-12T00:02:42;39.70;;;35.43;;
8102;SDS011;4094;49.948;11.574;2023-02-12T00:05:13;41.73;;;35.53;;
8102;SDS011;4094;49.948;11.574;2023-02-12T00:07:42;46.17;;;36.90;;
8102;SDS011;4094;49.948;11.574;2023-02-12T00:10:11;40.17;;;35.13;;
8102;SDS011;4094;49.948;11.574;2023-02-12T00:12:40;45.83;;;37.83;;
8102;SDS011;4094;49.948;11.574;2023-02-12T00:15:10;51.23;;;40.23;;
8102;SDS011;4094;49.948;11.574;2023-02-12T00:17:39;49.63;;;41.07;;
8102;SDS011;4094;49.948;11.574;2023-02-12T00:20:08;43.97;;;37.10;;
8102;SDS011;4094;49.948;11.574;2023-02-12T00:22:39;48.17;;;40.43;;
8102;SDS011;4094;49.948;11.574;2023-02-12T00:25:09;47.10;;;39.43;;
8102;SDS011;4094;49.948;11.574;2023-02-12T00:27:40;50.47;;;40.67;;
8102;SDS011;4094;49.948;11.574;2023-02-12T00:30:09;48.93;;;39.17;;
8102;SDS011;4094;49.948;11.574;2023-02-12T00:32:39;45.60;;;38.63;;
8102;SDS011;4094;49.948;11.574;2023-02-12T00:35:08;47.57;;;38.27;;
8102;SDS011;4094;49.948;11.574;2023-02-12T00:37:40;45.67;;;39.47;;
8102;SDS011;4094;49.948;11.574;2023-02-12T00:40:10;46.47;;;38.70;;
8102;SDS011;4094;49.948;11.574;2023-02-12T00:42:40;49.43;;;39.13;;
8102;SDS011;4094;49.948;11.574;2023-02-12T00:45:09;47.50;;;38.33;;
8102;SDS011;4094;49.948;11.574;2023-02-12T00:47:39;49.33;;;39.17;;
8102;SDS011;4094;49.948;11.574;2023-02-12T00:50:08;48.00;;;38.47;;
8102;SDS011;4094;49.948;11.574;2023-02-12T00:52:41;48.80;;;39.60;;
8102;SDS011;4094;49.948;11.574;2023-02-12T00:55:10;44.43;;;37.50;;
8102;SDS011;4094;49.948;11.574;2023-02-12T00:57:40;47.20;;;40.50;;
8102;SDS011;4094;49.948;11.574;2023-02-12T01:00:09;49.77;;;39.30;;
8102;SDS011;4094;49.948;11.574;2023-02-12T01:02:40;54.27;;;42.57;;
8102;SDS011;4094;49.948;11.574;2023-02-12T01:05:09;54.57;;;43.93;;
8102;SDS011;4094;49.948;11.574;2023-02-12T01:07:38;54.87;;;41.33;;
8102;SDS011;4094;49.948;11.574;2023-02-12T01:10:09;51.93;;;42.70;;
8102;SDS011;4094;49.948;11.574;2023-02-12T01:12:39;57.23;;;43.10;;
8102;SDS011;4094;49.948;11.574;2023-02-12T01:15:08;55.80;;;43.40;;
8102;SDS011;4094;49.948;11.574;2023-02-12T01:17:37;53.87;;;41.97;;
8102;SDS011;4094;49.948;11.574;2023-02-12T01:20:07;59.40;;;44.40;;
8102;SDS011;4094;49.948;11.574;2023-02-12T01:22:39;58.77;;;45.03;;
8102;SDS011;4094;49.948;11.574;2023-02-12T01:25:10;59.73;;;44.63;;
8102;SDS011;4094;49.948;11.574;2023-02-12T01:27:39;66.47;;;46.10;;
8102;SDS011;4094;49.948;11.574;2023-02-12T01:30:11;58.93;;;45.90;;
8102;SDS011;4094;49.948;11.574;2023-02-12T01:32:41;63.33;;;44.40;;
8102;SDS011;4094;49.948;11.574;2023-02-12T01:35:11;60.23;;;45.00;;
8102;SDS011;4094;49.948;11.574;2023-02-12T01:37:40;62.47;;;44.87;;
8102;SDS011;4094;49.948;11.574;2023-02-12T01:40:11;59.13;;;43.47;;
8102;SDS011;4094;49.948;11.574;2023-02-12T01:42:44;59.00;;;43.27;;
8102;SDS011;4094;49.948;11.574;2023-02-12T01:48:23;56.57;;;44.40;;
8102;SDS011;4094;49.948;11.574;2023-02-12T01:50:55;60.47;;;44.27;;
8102;SDS011;4094;49.948;11.574;2023-02-12T01:53:27;53.83;;;42.53;;
8102;SDS011;4094;49.948;11.574;2023-02-12T01:56:01;58.60;;;43.23;;
8102;SDS011;4094;49.948;11.574;2023-02-12T01:58:33;55.17;;;41.33;;
8102;SDS011;4094;49.948;11.574;2023-02-12T02:01:06;54.97;;;42.20;;
8102;SDS011;4094;49.948;11.574;2023-02-12T02:03:38;61.40;;;43.00;;
8102;SDS011;4094;49.948;11.574;2023-02-12T02:06:10;56.97;;;43.23;;
8102;SDS011;4094;49.948;11.574;2023-02-12T02:08:41;58.90;;;43.27;;
8102;SDS011;4094;49.948;11.574;2023-02-12T02:11:12;57.23;;;44.30;;
8102;SDS011;4094;49.948;11.574;2023-02-12T02:13:59;59.17;;;43.93;;
8102;SDS011;4094;49.948;11.574;2023-02-12T02:16:49;59.43;;;42.27;;
8102;SDS011;4094;49.948;11.574;2023-02-12T02:19:28;56.57;;;41.67;;
8102;SDS011;4094;49.948;11.574;2023-02-12T02:22:15;59.23;;;43.57;;
8102;SDS011;4094;49.948;11.574;2023-02-12T02:25:13;60.10;;;42.50;;
8102;SDS011;4094;49.948;11.574;2023-02-12T02:28:00;55.10;;;41.90;;
8102;SDS011;4094;49.948;11.574;2023-02-12T02:30:41;59.80;;;43.60;;
8102;SDS011;4094;49.948;11.574;2023-02-12T02:33:18;56.90;;;43.67;;
8102;SDS011;4094;49.948;11.574;2023-02-12T02:35:56;57.07;;;42.03;;
8102;SDS011;4094;49.948;11.574;2023-02-12T02:38:36;60.90;;;43.77;;
8102;SDS011;4094;49.948;11.574;2023-02-12T02:41:17;57.00;;;41.53;;
8102;SDS011;4094;49.948;11.574;2023-02-12T02:43:54;56.03;;;41.50;;
8102;SDS011;4094;49.948;11.574;2023-02-12T02:46:26;58.03;;;41.33;;
8102;SDS011;4094;49.948;11.574;2023-02-12T02:48:59;59.97;;;43.37;;
8102;SDS011;4094;49.948;11.574;2023-02-12T02:51:32;61.43;;;42.63;;
8102;SDS011;4094;49.948;11.574;2023-02-12T02:54:06;57.70;;;41.40;;
8102;SDS011;4094;49.948;11.574;2023-02-12T02:56:41;59.97;;;42.70;;
8102;SDS011;4094;49.948;11.574;2023-02-12T02:59:13;56.27;;;41.27;;
8102;SDS011;4094;49.948;11.574;2023-02-12T03:01:50;56.90;;;42.03;;
8102;SDS011;4094;49.948;11.574;2023-02-12T03:04:23;55.53;;;42.00;;
8102;SDS011;4094;49.948;11.574;2023-02-12T03:06:59;53.27;;;39.33;;
8102;SDS011;4094;49.948;11.574;2023-02-12T03:09:34;60.70;;;41.10;;
8102;SDS011;4094;49.948;11.574;2023-02-12T03:12:07;57.17;;;41.30;;
8102;SDS011;4094;49.948;11.574;2023-02-12T03:14:41;57.33;;;41.50;;
8102;SDS011;4094;49.948;11.574;2023-02-12T03:17:17;62.10;;;42.83;;
8102;SDS011;4094;49.948;11.574;2023-02-12T03:19:49;59.90;;;42.43;;
8102;SDS011;4094;49.948;11.574;2023-02-12T03:22:23;58.57;;;42.97;;
8102;SDS011;4094;49.948;11.574;2023-02-12T03:24:56;65.03;;;43.90;;
8102;SDS011;4094;49.948;11.574;2023-02-12T03:27:32;68.57;;;42.47;;
8102;SDS011;4094;49.948;11.574;2023-02-12T03:30:04;63.70;;;43.57;;
8102;SDS011;4094;49.948;11.574;2023-02-12T03:32:38;56.50;;;41.87;;
8102;SDS011;4094;49.948;11.574;2023-02-12T03:35:14;59.20;;;41.03;;
8102;SDS011;4094;49.948;11.574;2023-02-12T03:37:48;57.83;;;41.80;;
8102;SDS011;4094;49.948;11.574;2023-02-12T03:40:26;59.47;;;41.53;;
8102;SDS011;4094;49.948;11.574;2023-02-12T03:43:01;61.93;;;41.37;;
8102;SDS011;4094;49.948;11.574;2023-02-12T03:45:37;59.93;;;42.00;;
8102;SDS011;4094;49.948;11.574;2023-02-12T03:48:16;61.07;;;42.73;;
8102;SDS011;4094;49.948;11.574;2023-02-12T03:50:51;60.00;;;41.13;;
8102;SDS011;4094;49.948;11.574;2023-02-12T03:53:23;55.00;;;39.37;;
8102;SDS011;4094;49.948;11.574;2023-02-12T03:55:53;54.13;;;39.13;;
8102;SDS011;4094;49.948;11.574;2023-02-12T03:58:27;55.27;;;40.00;;
8102;SDS011;4094;49.948;11.574;2023-02-12T04:00:57;55.37;;;39.97;;
8102;SDS011;4094;49.948;11.574;2023-02-12T04:03:29;60.37;;;40.73;;
8102;SDS011;4094;49.948;11.574;2023-02-12T04:05:59;64.73;;;42.87;;
8102;SDS011;4094;49.948;11.574;2023-02-12T04:08:28;67.43;;;45.53;;
8102;SDS011;4094;49.948;11.574;2023-02-12T04:11:00;64.93;;;44.10;;
8102;SDS011;4094;49.948;11.574;2023-02-12T04:13:50;63.23;;;42.60;;
8102;SDS011;4094;49.948;11.574;2023-02-12T04:16:28;66.10;;;44.03;;
8102;SDS011;4094;49.948;11.574;2023-02-12T04:19:05;63.63;;;43.03;;
8102;SDS011;4094;49.948;11.574;2023-02-12T04:21:42;66.83;;;45.23;;
8102;SDS011;4094;49.948;11.574;2023-02-12T04:24:30;68.23;;;46.13;;
8102;SDS011;4094;49.948;11.574;2023-02-12T04:27:08;68.47;;;45.40;;
8102;SDS011;4094;49.948;11.574;2023-02-12T04:29:46;66.90;;;44.13;;
8102;SDS011;4094;49.948;11.574;2023-02-12T04:32:19;71.27;;;47.07;;
8102;SDS011;4094;49.948;11.574;2023-02-12T04:34:56;71.97;;;46.40;;
8102;SDS011;4094;49.948;11.574;2023-02-12T04:37:31;68.43;;;46.73;;
8102;SDS011;4094;49.948;11.574;2023-02-12T04:40:06;71.60;;;46.93;;
8102;SDS011;4094;49.948;11.574;2023-02-12T04:42:41;70.13;;;46.97;;
8102;SDS011;4094;49.948;11.574;2023-02-12T04:45:11;67.47;;;45.83;;
8102;SDS011;4094;49.948;11.574;2023-02-12T04:47:42;67.03;;;46.10;;
8102;SDS011;4094;49.948;11.574;2023-02-12T04:50:13;70.37;;;46.63;;
8102;SDS011;4094;49.948;11.574;2023-02-12T04:52:43;69.13;;;44.93;;
8102;SDS011;4094;49.948;11.574;2023-02-12T04:55:12;69.40;;;44.57;;
8102;SDS011;4094;49.948;11.574;2023-02-12T04:57:41;66.20;;;44.70;;
8102;SDS011;4094;49.948;11.574;2023-02-12T05:00:11;70.33;;;45.10;;
8102;SDS011;4094;49.948;11.574;2023-02-12T05:02:42;71.93;;;47.10;;
8102;SDS011;4094;49.948;11.574;2023-02-12T05:05:12;78.93;;;48.27;;
8102;SDS011;4094;49.948;11.574;2023-02-12T05:07:42;76.90;;;48.07;;
8102;SDS011;4094;49.948;11.574;2023-02-12T05:10:11;78.53;;;49.60;;
8102;SDS011;4094;49.948;11.574;2023-02-12T05:12:40;80.13;;;49.13;;
8102;SDS011;4094;49.948;11.574;2023-02-12T05:15:09;90.23;;;53.27;;
8102;SDS011;4094;49.948;11.574;2023-02-12T05:17:38;87.57;;;50.47;;
8102;SDS011;4094;49.948;11.574;2023-02-12T05:20:07;86.03;;;51.23;;
8102;SDS011;4094;49.948;11.574;2023-02-12T05:22:38;85.60;;;50.47;;
8102;SDS011;4094;49.948;11.574;2023-02-12T05:25:07;85.80;;;49.97;;
8102;SDS011;4094;49.948;11.574;2023-02-12T05:27:37;84.93;;;50.30;;
8102;SDS011;4094;49.948;11.574;2023-02-12T05:30:07;83.00;;;50.10;;
8102;SDS011;4094;49.948;11.574;2023-02-12T05:32:36;83.23;;;48.87;;
8102;SDS011;4094;49.948;11.574;2023-02-12T05:35:06;81.27;;;49.17;;
8102;SDS011;4094;49.948;11.574;2023-02-12T05:37:35;68.90;;;45.67;;
8102;SDS011;4094;49.948;11.574;2023-02-12T05:40:06;71.40;;;46.37;;
8102;SDS011;4094;49.948;11.574;2023-02-12T05:42:36;70.77;;;47.60;;
8102;SDS011;4094;49.948;11.574;2023-02-12T05:45:05;77.70;;;48.43;;
8102;SDS011;4094;49.948;11.574;2023-02-12T05:47:35;80.83;;;49.80;;
8102;SDS011;4094;49.948;11.574;2023-02-12T05:50:05;76.33;;;47.50;;
8102;SDS011;4094;49.948;11.574;2023-02-12T05:52:35;74.07;;;48.07;;
8102;SDS011;4094;49.948;11.574;2023-02-12T05:55:06;79.17;;;50.80;;
8102;SDS011;4094;49.948;11.574;2023-02-12T05:57:35;87.57;;;50.83;;
8102;SDS011;4094;49.948;11.574;2023-02-12T06:00:05;81.63;;;51.13;;
8102;SDS011;4094;49.948;11.574;2023-02-12T06:02:38;83.47;;;49.90;;
8102;SDS011;4094;49.948;11.574;2023-02-12T06:05:07;81.07;;;51.43;;
8102;SDS011;4094;49.948;11.574;2023-02-12T06:07:36;83.27;;;51.87;;
8102;SDS011;4094;49.948;11.574;2023-02-12T06:10:07;78.03;;;50.47;;
8102;SDS011;4094;49.948;11.574;2023-02-12T06:12:37;84.10;;;50.43;;
8102;SDS011;4094;49.948;11.574;2023-02-12T06:15:06;83.03;;;51.73;;
8102;SDS011;4094;49.948;11.574;2023-02-12T06:17:35;76.50;;;50.20;;
8102;SDS011;4094;49.948;11.574;2023-02-12T06:20:06;82.47;;;50.67;;
8102;SDS011;4094;49.948;11.574;2023-02-12T06:22:35;76.60;;;50.77;;
8102;SDS011;4094;49.948;11.574;2023-02-12T06:25:06;72.40;;;48.40;;
8102;SDS011;4094;49.948;11.574;2023-02-12T06:27:36;76.20;;;49.47;;
8102;SDS011;4094;49.948;11.574;2023-02-12T06:30:05;73.83;;;48.57;;
8102;SDS011;4094;49.948;11.574;2023-02-12T06:32:35;74.33;;;48.40;;
8102;SDS011;4094;49.948;11.574;2023-02-12T06:35:04;74.13;;;47.13;;
8102;SDS011;4094;49.948;11.574;2023-02-12T06:37:34;76.57;;;48.13;;
8102;SDS011;4094;49.948;11.574;2023-02-12T06:40:07;72.23;;;45.87;;
8102;SDS011;4094;49.948;11.574;2023-02-12T06:42:36;66.60;;;43.80;;
8102;SDS011;4094;49.948;11.574;2023-02-12T06:45:05;62.83;;;42.87;;
8102;SDS011;4094;49.948;11.574;2023-02-12T06:47:35;61.97;;;42.83;;
8102;SDS011;4094;49.948;11.574;2023-02-12T06:50:05;55.07;;;40.43;;
8102;SDS011;4094;49.948;11.574;2023-02-12T06:52:35;49.57;;;37.23;;
8102;SDS011;4094;49.948;11.574;2023-02-12T06:55:04;52.80;;;39.77;;
8102;SDS011;4094;49.948;11.574;2023-02-12T06:57:37;49.97;;;39.50;;
8102;SDS011;4094;49.948;11.574;2023-02-12T07:00:07;48.77;;;38.37;;
8102;SDS011;4094;49.948;11.574;2023-02-12T07:02:38;49.67;;;39.03;;
8102;SDS011;4094;49.948;11.574;2023-02-12T07:05:07;47.50;;;37.30;;
8102;SDS011;4094;49.948;11.574;2023-02-12T07:07:36;47.03;;;37.33;;
8102;SDS011;4094;49.948;11.574;2023-02-12T07:10:06;45.57;;;36.67;;
8102;SDS011;4094;49.948;11.574;2023-02-12T07:12:38;48.20;;;37.13;;
8102;SDS011;4094;49.948;11.574;2023-02-12T07:15:08;46.67;;;35.67;;
8102;SDS011;4094;49.948;11.574;2023-02-12T07:17:37;45.57;;;35.77;;
8102;SDS011;4094;49.948;11.574;2023-02-12T07:20:07;46.70;;;34.87;;
8102;SDS011;4094;49.948;11.574;2023-02-12T07:22:36;44.73;;;35.67;;
8102;SDS011;4094;49.948;11.574;2023-02-12T07:25:06;45.77;;;34.63;;
8102;SDS011;4094;49.948;11.574;2023-02-12T07:27:35;49.80;;;37.47;;
8102;SDS011;4094;49.948;11.574;2023-02-12T07:30:07;45.57;;;34.30;;
8102;SDS011;4094;49.948;11.574;2023-02-12T07:32:36;44.90;;;34.83;;
8102;SDS011;4094;49.948;11.574;2023-02-12T07:35:06;46.27;;;35.63;;
8102;SDS011;4094;49.948;11.574;2023-02-12T07:37:35;47.13;;;36.37;;
8102;SDS011;4094;49.948;11.574;2023-02-12T07:40:06;44.60;;;34.93;;
8102;SDS011;4094;49.948;11.574;2023-02-12T07:42:36;43.87;;;34.07;;
8102;SDS011;4094;49.948;11.574;2023-02-12T07:45:08;43.30;;;33.97;;
8102;SDS011;4094;49.948;11.574;2023-02-12T07:47:37;42.10;;;34.40;;
8102;SDS011;4094;49.948;11.574;2023-02-12T07:50:07;45.17;;;34.83;;
8102;SDS011;4094;49.948;11.574;2023-02-12T07:52:37;45.90;;;36.13;;
8102;SDS011;4094;49.948;11.574;2023-02-12T07:55:06;43.30;;;34.50;;
8102;SDS011;4094;49.948;11.574;2023-02-12T07:57:36;45.13;;;35.77;;
8102;SDS011;4094;49.948;11.574;2023-02-12T08:00:05;46.00;;;36.60;;
8102;SDS011;4094;49.948;11.574;2023-02-12T08:02:40;44.60;;;34.87;;
8102;SDS011;4094;49.948;11.574;2023-02-12T08:05:09;43.87;;;34.97;;
8102;SDS011;4094;49.948;11.574;2023-02-12T08:07:38;44.57;;;34.97;;
8102;SDS011;4094;49.948;11.574;2023-02-12T08:10:08;44.03;;;34.97;;
8102;SDS011;4094;49.948;11.574;2023-02-12T08:12:37;43.33;;;34.30;;
8102;SDS011;4094;49.948;11.574;2023-02-12T08:15:08;46.37;;;36.20;;
8102;SDS011;4094;49.948;11.574;2023-02-12T08:17:38;46.70;;;35.77;;
8102;SDS011;4094;49.948;11.574;2023-02-12T08:20:09;45.23;;;34.87;;
8102;SDS011;4094;49.948;11.574;2023-02-12T08:22:38;43.67;;;34.90;;
8102;SDS011;4094;49.948;11.574;2023-02-12T08:25:07;48.43;;;36.87;;
8102;SDS011;4094;49.948;11.574;2023-02-12T08:27:39;46.00;;;36.23;;
8102;SDS011;4094;49.948;11.574;2023-02-12T08:30:10;46.70;;;36.10;;
8102;SDS011;4094;49.948;11.574;2023-02-12T08:32:41;43.83;;;34.13;;
8102;SDS011;4094;49.948;11.574;2023-02-12T08:35:11;47.17;;;36.53;;
8102;SDS011;4094;49.948;11.574;2023-02-12T08:37:40;44.73;;;33.43;;
8102;SDS011;4094;49.948;11.574;2023-02-12T08:40:09;46.43;;;36.23;;
8102;SDS011;4094;49.948;11.574;2023-02-12T08:42:40;47.13;;;36.20;;
8102;SDS011;4094;49.948;11.574;2023-02-12T08:45:11;45.57;;;35.90;;
8102;SDS011;4094;49.948;11.574;2023-02-12T08:47:40;50.40;;;37.23;;
8102;SDS011;4094;49.948;11.574;2023-02-12T08:50:09;47.17;;;35.83;;
8102;SDS011;4094;49.948;11.574;2023-02-12T08:52:38;46.97;;;36.43;;
8102;SDS011;4094;49.948;11.574;2023-02-12T08:55:10;44.77;;;34.20;;
8102;SDS011;4094;49.948;11.574;2023-02-12T08:57:40;45.23;;;35.47;;
8102;SDS011;4094;49.948;11.574;2023-02-12T09:00:11;48.07;;;36.30;;
8102;SDS011;4094;49.948;11.574;2023-02-12T09:02:43;46.10;;;36.17;;
8102;SDS011;4094;49.948;11.574;2023-02-12T09:05:13;46.83;;;36.00;;
8102;SDS011;4094;49.948;11.574;2023-02-12T09:07:42;48.03;;;37.63;;
8102;SDS011;4094;49.948;11.574;2023-02-12T09:10:12;44.17;;;34.67;;
8102;SDS011;4094;49.948;11.574;2023-02-12T09:12:44;49.13;;;36.43;;
8102;SDS011;4094;49.948;11.574;2023-02-12T09:15:14;49.83;;;36.37;;
8102;SDS011;4094;49.948;11.574;2023-02-12T09:17:43;47.83;;;37.13;;
8102;SDS011;4094;49.948;11.574;2023-02-12T09:20:13;46.77;;;36.00;;
8102;SDS011;4094;49.948;11.574;2023-02-12T09:22:43;50.27;;;36.70;;
8102;SDS011;4094;49.948;11.574;2023-02-12T09:25:12;50.67;;;37.20;;
8102;SDS011;4094;49.948;11.574;2023-02-12T09:27:41;45.77;;;36.37;;
8102;SDS011;4094;49.948;11.574;2023-02-12T09:30:11;46.73;;;35.10;;
8102;SDS011;4094;49.948;11.574;2023-02-12T09:32:43;46.20;;;36.07;;
8102;SDS011;4094;49.948;11.574;2023-02-12T09:35:11;51.73;;;37.33;;
8102;SDS011;4094;49.948;11.574;2023-02-12T09:37:41;47.90;;;36.80;;
8102;SDS011;4094;49.948;11.574;2023-02-12T09:40:15;47.17;;;37.43;;
8102;SDS011;4094;49.948;11.574;2023-02-12T09:42:51;47.10;;;37.23;;
8102;SDS011;4094;49.948;11.574;2023-02-12T09:45:31;44.77;;;35.37;;
8102;SDS011;4094;49.948;11.574;2023-02-12T09:48:10;50.50;;;36.37;;
8102;SDS011;4094;49.948;11.574;2023-02-12T09:50:50;46.93;;;36.47;;
8102;SDS011;4094;49.948;11.574;2023-02-12T09:53:22;49.93;;;37.50;;
8102;SDS011;4094;49.948;11.574;2023-02-12T09:55:54;52.93;;;37.80;;
8102;SDS011;4094;49.948;11.574;2023-02-12T09:58:28;47.07;;;35.17;;
8102;SDS011;4094;49.948;11.574;2023-02-12T10:01:00;49.57;;;36.17;;
8102;SDS011;4094;49.948;11.574;2023-02-12T10:03:38;51.33;;;37.23;;
8102;SDS011;4094;49.948;11.574;2023-02-12T10:06:12;46.30;;;35.37;;
8102;SDS011;4094;49.948;11.574;2023-02-12T10:09:02;46.90;;;35.40;;
8102;SDS011;4094;49.948;11.574;2023-02-12T10:11:43;47.50;;;35.63;;
8102;SDS011;4094;49.948;11.574;2023-02-12T10:14:27;45.57;;;35.63;;
8102;SDS011;4094;49.948;11.574;2023-02-12T10:17:22;46.80;;;35.00;;
8102;SDS011;4094;49.948;11.574;2023-02-12T10:23:12;42.37;;;33.10;;
8102;SDS011;4094;49.948;11.574;2023-02-12T10:25:58;40.67;;;32.30;;
8102;SDS011;4094;49.948;11.574;2023-02-12T10:28:34;42.97;;;34.80;;
8102;SDS011;4094;49.948;11.574;2023-02-12T10:31:07;41.17;;;32.70;;
8102;SDS011;4094;49.948;11.574;2023-02-12T10:33:44;39.30;;;32.23;;
8102;SDS011;4094;49.948;11.574;2023-02-12T10:36:20;40.90;;;32.40;;
8102;SDS011;4094;49.948;11.574;2023-02-12T10:39:01;38.60;;;31.83;;
8102;SDS011;4094;49.948;11.574;2023-02-12T10:41:34;35.87;;;30.37;;
8102;SDS011;4094;49.948;11.574;2023-02-12T10:44:08;35.20;;;29.47;;
8102;SDS011;4094;49.948;11.574;2023-02-12T10:46:38;33.27;;;28.63;;
8102;SDS011;4094;49.948;11.574;2023-02-12T10:49:09;35.43;;;29.50;;
8102;SDS011;4094;49.948;11.574;2023-02-12T10:51:47;32.50;;;28.33;;
8102;SDS011;4094;49.948;11.574;2023-02-12T10:54:33;33.37;;;28.10;;
8102;SDS011;4094;49.948;11.574;2023-02-12T10:57:15;33.07;;;28.90;;
8102;SDS011;4094;49.948;11.574;2023-02-12T10:59:49;31.10;;;27.17;;
8102;SDS011;4094;49.948;11.574;2023-02-12T11:02:23;35.80;;;29.87;;
8102;SDS011;4094;49.948;11.574;2023-02-12T11:04:55;36.00;;;29.83;;
8102;SDS011;4094;49.948;11.574;2023-02-12T11:07:37;33.87;;;28.93;;
8102;SDS011;4094;49.948;11.574;2023-02-12T11:10:19;33.57;;;28.33;;
8102;SDS011;4094;49.948;11.574;2023-02-12T11:12:49;31.33;;;27.93;;
8102;SDS011;4094;49.948;11.574;2023-02-12T11:15:19;36.63;;;30.40;;
8102;SDS011;4094;49.948;11.574;2023-02-12T11:17:54;36.23;;;29.23;;
8102;SDS011;4094;49.948;11.574;2023-02-12T11:20:26;35.13;;;28.63;;
8102;SDS011;4094;49.948;11.574;2023-02-12T11:22:59;33.87;;;28.37;;
8102;SDS011;4094;49.948;11.574;2023-02-12T11:25:33;33.60;;;27.83;;
8102;SDS011;4094;49.948;11.574;2023-02-12T11:28:09;30.77;;;26.83;;
8102;SDS011;4094;49.948;11.574;2023-02-12T11:30:49;33.20;;;27.60;;
8102;SDS011;4094;49.948;11.574;2023-02-12T11:33:21;32.40;;;27.13;;
8102;SDS011;4094;49.948;11.574;2023-02-12T11:35:55;33.40;;;27.73;;
8102;SDS011;4094;49.948;11.574;2023-02-12T11:38:28;29.40;;;25.73;;
8102;SDS011;4094;49.948;11.574;2023-02-12T11:41:05;29.73;;;26.10;;
8102;SDS011;4094;49.948;11.574;2023-02-12T11:43:48;32.17;;;27.20;;
8102;SDS011;4094;49.948;11.574;2023-02-12T11:46:26;29.27;;;26.07;;
8102;SDS011;4094;49.948;11.574;2023-02-12T11:48:56;30.93;;;27.20;;
8102;SDS011;4094;49.948;11.574;2023-02-12T11:51:27;30.40;;;26.10;;
8102;SDS011;4094;49.948;11.574;2023-02-12T11:53:59;32.53;;;28.00;;
8102;SDS011;4094;49.948;11.574;2023-02-12T11:56:39;30.63;;;26.93;;
8102;SDS011;4094;49.948;11.574;2023-02-12T11:59:12;31.73;;;27.77;;
8102;SDS011;4094;49.948;11.574;2023-02-12T12:01:51;33.83;;;29.43;;
8102;SDS011;4094;49.948;11.574;2023-02-12T12:04:24;32.03;;;28.33;;
8102;SDS011;4094;49.948;11.574;2023-02-12T12:06:59;31.37;;;26.77;;
8102;SDS011;4094;49.948;11.574;2023-02-12T12:09:35;31.83;;;27.57;;
8102;SDS011;4094;49.948;11.574;2023-02-12T12:12:09;35.47;;;29.27;;
8102;SDS011;4094;49.948;11.574;2023-02-12T12:14:47;32.53;;;27.27;;
8102;SDS011;4094;49.948;11.574;2023-02-12T12:17:39;29.57;;;26.47;;
8102;SDS011;4094;49.948;11.574;2023-02-12T12:20:31;30.50;;;25.17;;
8102;SDS011;4094;49.948;11.574;2023-02-12T12:23:07;29.60;;;25.70;;
8102;SDS011;4094;49.948;11.574;2023-02-12T12:25:44;28.57;;;25.00;;
8102;SDS011;4094;49.948;11.574;2023-02-12T12:28:22;29.63;;;25.63;;
8102;SDS011;4094;49.948;11.574;2023-02-12T12:31:04;29.53;;;26.30;;
8102;SDS011;4094;49.948;11.574;2023-02-12T12:33:39;29.23;;;25.17;;
8102;SDS011;4094;49.948;11.574;2023-02-12T12:36:31;29.17;;;25.97;;
8102;SDS011;4094;49.948;11.574;2023-02-12T12:39:24;28.43;;;24.87;;
8102;SDS011;4094;49.948;11.574;2023-02-12T12:42:06;28.27;;;25.23;;
8102;SDS011;4094;49.948;11.574;2023-02-12T12:44:50;26.67;;;23.87;;
8102;SDS011;4094;49.948;11.574;2023-02-12T12:47:28;26.43;;;23.67;;
8102;SDS011;4094;49.948;11.574;2023-02-12T12:50:23;27.20;;;23.97;;
8102;SDS011;4094;49.948;11.574;2023-02-12T12:53:14;26.00;;;23.20;;
8102;SDS011;4094;49.948;11.574;2023-02-12T12:55:53;27.27;;;24.30;;
8102;SDS011;4094;49.948;11.574;2023-02-12T12:58:35;26.73;;;22.90;;
8102;SDS011;4094;49.948;11.574;2023-02-12T13:01:20;27.50;;;24.57;;
8102;SDS011;4094;49.948;11.574;2023-02-12T13:07:10;26.83;;;23.67;;
8102;SDS011;4094;49.948;11.574;2023-02-12T13:09:57;26.43;;;23.67;;
8102;SDS011;4094;49.948;11.574;2023-02-12T13:12:41;26.83;;;23.97;;
8102;SDS011;4094;49.948;11.574;2023-02-12T13:15:42;27.60;;;24.70;;
8102;SDS011;4094;49.948;11.574;2023-02-12T13:18:21;27.73;;;24.73;;
8102;SDS011;4094;49.948;11.574;2023-02-12T13:21:00;25.73;;;23.03;;
8102;SDS011;4094;49.948;11.574;2023-02-12T13:23:35;25.23;;;22.60;;
8102;SDS011;4094;49.948;11.574;2023-02-12T13:26:12;25.30;;;22.70;;
8102;SDS011;4094;49.948;11.574;2023-02-12T13:28:45;24.03;;;21.63;;
8102;SDS011;4094;49.948;11.574;2023-02-12T13:31:20;23.23;;;20.73;;
8102;SDS011;4094;49.948;11.574;2023-02-12T13:34:01;23.67;;;21.13;;
8102;SDS011;4094;49.948;11.574;2023-02-12T13:36:32;23.87;;;21.50;;
8102;SDS011;4094;49.948;11.574;2023-02-12T13:39:04;22.93;;;20.70;;
8102;SDS011;4094;49.948;11.574;2023-02-12T13:41:38;22.77;;;20.53;;
8102;SDS011;4094;49.948;11.574;2023-02-12T13:44:12;23.37;;;20.87;;
8102;SDS011;4094;49.948;11.574;2023-02-12T13:46:50;23.57;;;21.27;;
8102;SDS011;4094;49.948;11.574;2023-02-12T13:49:29;23.23;;;20.80;;
8102;SDS011;4094;49.948;11.574;2023-02-12T13:52:09;22.03;;;19.80;;
8102;SDS011;4094;49.948;11.574;2023-02-12T13:54:49;23.20;;;20.97;;
8102;SDS011;4094;49.948;11.574;2023-02-12T13:57:25;21.70;;;19.60;;
8102;SDS011;4094;49.948;11.574;2023-02-12T13:59:54;21.60;;;19.50;;
8102;SDS011;4094;49.948;11.574;2023-02-12T14:02:39;21.20;;;19.20;;
8102;SDS011;4094;49.948;11.574;2023-02-12T14:05:22;21.30;;;19.37;;
8102;SDS011;4094;49.948;11.574;2023-02-12T14:07:56;19.10;;;17.30;;
8102;SDS011;4094;49.948;11.574;2023-02-12T14:10:29;17.80;;;16.20;;
8102;SDS011;4094;49.948;11.574;2023-02-12T14:13:12;16.93;;;15.43;;
8102;SDS011;4094;49.948;11.574;2023-02-12T14:15:46;16.83;;;15.43;;
8102;SDS011;4094;49.948;11.574;2023-02-12T14:27:20;19.80;;;17.93;;
8102;SDS011;4094;49.948;11.574;2023-02-12T14:32:57;19.40;;;17.50;;
8102;SDS011;4094;49.948;11.574;2023-02-12T14:35:40;20.83;;;18.93;;
8102;SDS011;4094;49.948;11.574;2023-02-12T14:41:22;21.80;;;19.60;;
8102;SDS011;4094;49.948;11.574;2023-02-12T14:50:19;21.53;;;19.43;;
8102;SDS011;4094;49.948;11.574;2023-02-12T14:53:03;22.07;;;19.83;;
8102;SDS011;4094;49.948;11.574;2023-02-12T14:55:52;20.93;;;19.03;;
8102;SDS011;4094;49.948;11.574;2023-02-12T14:58:24;22.70;;;20.43;;
8102;SDS011;4094;49.948;11.574;2023-02-12T15:00:54;20.70;;;18.73;;
8102;SDS011;4094;49.948;11.574;2023-02-12T15:03:26;20.37;;;18.37;;
8102;SDS011;4094;49.948;11.574;2023-02-12T15:06:01;20.20;;;18.30;;
8102;SDS011;4094;49.948;11.574;2023-02-12T15:08:39;22.03;;;19.93;;
8102;SDS011;4094;49.948;11.574;2023-02-12T15:11:13;22.83;;;20.73;;
8102;SDS011;4094;49.948;11.574;2023-02-12T15:13:51;22.83;;;20.73;;
8102;SDS011;4094;49.948;11.574;2023-02-12T15:16:28;23.50;;;21.20;;
8102;SDS011;4094;49.948;11.574;2023-02-12T15:19:01;24.07;;;21.67;;
8102;SDS011;4094;49.948;11.574;2023-02-12T15:21:37;24.27;;;21.97;;
8102;SDS011;4094;49.948;11.574;2023-02-12T15:24:09;20.33;;;18.40;;
8102;SDS011;4094;49.948;11.574;2023-02-12T15:26:40;20.80;;;18.90;;
8102;SDS011;4094;49.948;11.574;2023-02-12T15:29:18;21.03;;;19.13;;
8102;SDS011;4094;49.948;11.574;2023-02-12T15:31:49;20.57;;;18.67;;
8102;SDS011;4094;49.948;11.574;2023-02-12T15:34:21;19.80;;;18.03;;
8102;SDS011;4094;49.948;11.574;2023-02-12T15:36:52;22.63;;;20.63;;
8102;SDS011;4094;49.948;11.574;2023-02-12T15:39:25;20.47;;;18.67;;
8102;SDS011;4094;49.948;11.574;2023-02-12T15:41:56;20.17;;;18.27;;